Ariel, Mississippi
Current Conditions -  °F | °C
As of 6:17 PM on Friday 19 Dec 2014 (Local Time) from KMCB Reporting Station
Moderate Rain Moderate Rain  
Wind Chill: 41°   Ceiling: 700
Heat Index: 45°   Visibility: 4mi
Dew Point: 43°   Wind: 7mph
Humidity: 93%   Direction: 50°NE
Pressure: 30.11"   Gusts: NA
Location:  31.1819°N, 90.9008°W
Report Text: KMCB 200017Z AUTO 05006KT 4SM RA BR BKN007 BKN045 OVC060 07/06 A3011 RMK AO2 P0004 T00720061
Loading
Personal Weather Stations






























Interactive Weather Map New forecast layout! Learn more

10-Day Weather Forecast

Advertisements
Track Severe Weather on mobile